Time;durP1;ratioP1;P1;durP2;ratioP2;P2;SDS_P1;SDS_P2;PMS_P1;PMS_P2;Temp;Humidity;BMP_temperature;BMP_pressure;BME280_temperature;BME280_humidity;BME280_pressure;Samples;Min_cycle;Max_cycle;Signal;HPM_P1;HPM_P2
2021/12/18 00:01:07;;;;;;;8.43;3.43;;;5.20;99.90;;;;;;5073858;28;20071;-76
2021/12/18 00:03:34;;;;;;;4.77;2.67;;;5.20;99.90;;;;;;5074441;28;20044;-77
2021/12/18 00:06:01;;;;;;;6.17;3.53;;;5.10;99.90;;;;;;5073519;28;20462;-80
2021/12/18 00:08:28;;;;;;;5.40;2.83;;;5.20;99.90;;;;;;5074397;28;20534;-76
2021/12/18 00:10:55;;;;;;;4.20;2.43;;;5.10;99.90;;;;;;5074740;28;20040;-77
2021/12/18 00:13:25;;;;;;;6.03;2.70;;;5.10;99.90;;;;;;5074596;28;20420;-75
2021/12/18 00:15:53;;;;;;;4.27;2.43;;;5.10;99.90;;;;;;5073863;28;20131;-76
2021/12/18 00:18:20;;;;;;;6.40;2.23;;;5.10;99.90;;;;;;5074481;28;20044;-76
2021/12/18 00:20:47;;;;;;;3.93;2.23;;;5.10;99.90;;;;;;5074172;28;20052;-76
2021/12/18 00:23:14;;;;;;;2.33;1.90;;;5.10;99.90;;;;;;5074592;28;20055;-75
2021/12/18 00:25:41;;;;;;;2.50;2.30;;;5.10;99.90;;;;;;5074184;28;20041;-75
2021/12/18 00:28:09;;;;;;;2.73;1.20;;;5.00;99.90;;;;;;5075341;28;20040;-76
2021/12/18 00:30:36;;;;;;;2.17;1.87;;;5.10;99.90;;;;;;5074785;28;20045;-77
2021/12/18 00:33:05;;;;;;;3.10;2.00;;;5.10;99.90;;;;;;5074290;28;20040;-76
2021/12/18 00:35:33;;;;;;;3.43;2.03;;;5.10;99.90;;;;;;5073453;28;20471;-77
2021/12/18 00:38:00;;;;;;;2.93;2.00;;;5.10;99.90;;;;;;5074089;28;20040;-74
2021/12/18 00:40:31;;;;;;;5.40;1.93;;;5.10;99.90;;;;;;5074061;28;20059;-75
2021/12/18 00:43:00;;;;;;;1.67;1.40;;;5.10;99.90;;;;;;5073875;28;20052;-76
2021/12/18 00:45:28;;;;;;;2.63;1.73;;;5.00;99.90;;;;;;5073110;28;20040;-76
2021/12/18 00:47:57;;;;;;;1.97;1.60;;;5.00;99.90;;;;;;5073977;28;20048;-74
2021/12/18 00:50:29;;;;;;;1.63;1.47;;;5.10;99.90;;;;;;5073409;28;20132;-76
2021/12/18 00:52:56;;;;;;;2.63;1.73;;;5.10;99.90;;;;;;5073502;28;20055;-75
2021/12/18 00:55:22;;;;;;;1.80;1.63;;;5.10;99.90;;;;;;5072881;28;20122;-74
2021/12/18 00:57:51;;;;;;;1.53;1.30;;;5.10;99.90;;;;;;5074369;28;20488;-75
2021/12/18 01:00:24;;;;;;;1.40;1.30;;;5.10;99.90;;;;;;5073434;28;20048;-76
2021/12/18 01:02:52;;;;;;;1.50;1.20;;;5.10;99.90;;;;;;5073630;28;20431;-75
2021/12/18 01:05:19;;;;;;;2.20;1.10;;;5.10;99.90;;;;;;5072943;28;20143;-75
2021/12/18 01:07:47;;;;;;;1.93;1.03;;;5.10;99.90;;;;;;5072928;28;20052;-78
2021/12/18 01:10:36;;;;;;;1.23;1.10;;;5.10;99.90;;;;;;5073021;28;20070;-79
2021/12/18 01:13:05;;;;;;;1.40;1.30;;;5.10;99.90;;;;;;5073193;28;20135;-77
2021/12/18 01:15:34;;;;;;;2.07;1.30;;;5.10;99.90;;;;;;5072368;28;20058;-78
2021/12/18 01:23:33;;;;;;;3.23;1.37;;;5.10;99.90;;;;;;5072569;28;20185;-78
2021/12/18 01:26:00;;;;;;;3.87;1.80;;;5.10;99.90;;;;;;5072340;28;20048;-78
2021/12/18 01:28:27;;;;;;;2.27;2.03;;;5.20;99.90;;;;;;5072656;28;20048;-77
2021/12/18 01:30:56;;;;;;;1.47;1.17;;;5.20;99.90;;;;;;5072707;28;20048;-80
2021/12/18 01:33:23;;;;;;;4.07;1.80;;;5.10;99.90;;;;;;5072613;28;20455;-77
2021/12/18 01:35:50;;;;;;;1.93;1.40;;;5.10;99.90;;;;;;5071996;28;20401;-78
2021/12/18 01:38:17;;;;;;;2.07;1.60;;;5.10;99.90;;;;;;5072287;28;20048;-79
2021/12/18 01:40:46;;;;;;;5.10;1.67;;;5.10;99.90;;;;;;5072425;28;20448;-80
2021/12/18 01:46:18;;;;;;;3.73;1.67;;;5.10;99.90;;;;;;5071471;28;20045;-77
2021/12/18 01:51:46;;;;;;;2.67;1.70;;;5.00;99.90;;;;;;5071847;28;20114;-79
2021/12/18 01:54:14;;;;;;;1.80;1.40;;;5.00;99.90;;;;;;5071934;28;20135;-78
2021/12/18 01:56:42;;;;;;;5.23;2.67;;;5.00;99.90;;;;;;5072080;28;20044;-77
2021/12/18 01:59:08;;;;;;;4.63;2.00;;;5.10;99.90;;;;;;5072103;28;20090;-78
2021/12/18 02:01:35;;;;;;;3.37;2.27;;;5.10;99.90;;;;;;5072054;28;20691;-78
2021/12/18 02:04:02;;;;;;;2.43;2.20;;;5.10;99.90;;;;;;5071519;28;20493;-76
2021/12/18 02:06:28;;;;;;;6.03;2.53;;;5.10;99.90;;;;;;5070545;28;20048;-75
2021/12/18 02:08:55;;;;;;;4.60;2.97;;;5.10;99.90;;;;;;5072257;28;20097;-76
2021/12/18 02:11:29;;;;;;;4.17;3.00;;;5.20;99.90;;;;;;5072135;28;20094;-78
2021/12/18 02:14:10;;;;;;;4.20;1.83;;;5.20;99.90;;;;;;5071725;28;20068;-77
2021/12/18 02:22:11;;;;;;;2.97;2.70;;;5.10;99.90;;;;;;5070960;28;20056;-78
2021/12/18 02:24:37;;;;;;;3.20;2.20;;;5.10;99.90;;;;;;5072011;28;20041;-78
2021/12/18 02:27:04;;;;;;;2.87;2.30;;;5.10;99.90;;;;;;5071857;28;20048;-77
2021/12/18 02:29:32;;;;;;;3.47;2.20;;;5.20;99.90;;;;;;5072228;28;20090;-78
2021/12/18 02:31:59;;;;;;;5.03;2.83;;;5.10;99.90;;;;;;5072144;28;20044;-78
2021/12/18 02:34:29;;;;;;;5.83;3.33;;;5.10;99.90;;;;;;5071367;28;20045;-79
2021/12/18 02:37:02;;;;;;;2.60;1.60;;;5.10;99.90;;;;;;5072265;28;20127;-80
2021/12/18 02:39:43;;;;;;;4.77;3.17;;;5.20;99.90;;;;;;5072120;28;20072;-78
2021/12/18 02:42:17;;;;;;;6.87;3.07;;;5.20;99.90;;;;;;5071674;28;20055;-77
2021/12/18 02:44:44;;;;;;;3.53;2.53;;;5.20;99.90;;;;;;5071487;28;20052;-76
2021/12/18 02:47:13;;;;;;;3.53;2.67;;;5.20;99.90;;;;;;5071753;28;20090;-75
2021/12/18 02:49:43;;;;;;;4.83;2.93;;;5.20;99.90;;;;;;5071484;28;20048;-76
2021/12/18 02:52:13;;;;;;;4.60;2.53;;;5.20;99.90;;;;;;5071736;28;20067;-76
2021/12/18 02:54:43;;;;;;;2.20;1.83;;;5.20;99.90;;;;;;5070928;28;20044;-76
2021/12/18 02:57:11;;;;;;;3.27;2.10;;;5.20;99.90;;;;;;5071469;28;20099;-79
2021/12/18 02:59:46;;;;;;;5.77;2.73;;;5.20;99.90;;;;;;5072137;28;20048;-76
2021/12/18 03:02:13;;;;;;;3.80;2.17;;;5.20;99.90;;;;;;5075082;28;20413;-76
2021/12/18 03:04:42;;;;;;;3.23;2.27;;;5.20;99.90;;;;;;5074876;28;20102;-75
2021/12/18 03:07:11;;;;;;;5.13;2.73;;;5.20;99.90;;;;;;5075142;28;20044;-76
2021/12/18 03:21:52;;;;;;;4.80;2.53;;;5.30;99.90;;;;;;5074891;28;20550;-76
2021/12/18 03:24:21;;;;;;;3.20;1.80;;;5.20;99.90;;;;;;5073918;28;20044;-76
2021/12/18 03:26:48;;;;;;;3.77;2.43;;;5.30;99.90;;;;;;5075379;28;20249;-78
2021/12/18 03:29:16;;;;;;;2.80;1.57;;;5.30;99.90;;;;;;5074821;28;20052;-79
2021/12/18 03:31:43;;;;;;;2.80;1.70;;;5.30;99.90;;;;;;5074721;28;20041;-80
2021/12/18 03:34:09;;;;;;;4.00;1.90;;;5.30;99.90;;;;;;5074265;28;20448;-78
2021/12/18 03:36:36;;;;;;;3.27;1.93;;;5.30;99.90;;;;;;5074632;28;20169;-78
2021/12/18 03:39:03;;;;;;;4.50;2.10;;;5.20;99.90;;;;;;5074878;28;20041;-79
2021/12/18 03:41:30;;;;;;;2.80;2.20;;;5.20;99.90;;;;;;5074719;28;20385;-78
2021/12/18 03:43:57;;;;;;;3.53;2.03;;;5.30;99.90;;;;;;5074269;28;20048;-76
2021/12/18 03:46:25;;;;;;;2.63;1.87;;;5.30;99.90;;;;;;5074172;28;20085;-77
2021/12/18 03:48:52;;;;;;;2.77;2.10;;;5.30;99.90;;;;;;5074470;28;20097;-76
2021/12/18 03:51:18;;;;;;;2.27;1.77;;;5.30;99.90;;;;;;5074721;28;20151;-76
2021/12/18 03:53:45;;;;;;;2.70;1.77;;;5.40;99.90;;;;;;5074963;28;20075;-76
2021/12/18 03:56:12;;;;;;;6.37;2.23;;;5.30;99.90;;;;;;5074079;28;20466;-77
2021/12/18 03:58:39;;;;;;;4.60;2.40;;;5.40;99.90;;;;;;5074532;28;20103;-78
2021/12/18 04:01:06;;;;;;;3.87;2.30;;;5.40;99.90;;;;;;5074127;28;20049;-78
2021/12/18 04:03:34;;;;;;;2.60;1.80;;;5.30;99.90;;;;;;5074188;28;20566;-77
2021/12/18 04:06:00;;;;;;;3.83;1.97;;;5.30;99.90;;;;;;5073854;28;20044;-77
2021/12/18 04:08:27;;;;;;;3.87;2.50;;;5.30;99.90;;;;;;5074519;28;20098;-78
2021/12/18 04:10:53;;;;;;;4.30;2.37;;;5.30;99.90;;;;;;5073767;28;20053;-78
2021/12/18 04:13:20;;;;;;;4.17;1.93;;;5.30;99.90;;;;;;5074136;28;20500;-80
2021/12/18 04:15:48;;;;;;;4.00;2.40;;;5.30;99.90;;;;;;5073616;28;20044;-79
2021/12/18 04:18:14;;;;;;;3.20;2.50;;;5.30;99.90;;;;;;5074128;28;20053;-79
2021/12/18 04:20:42;;;;;;;2.63;1.33;;;5.30;99.90;;;;;;5074648;28;20045;-78
2021/12/18 04:23:09;;;;;;;2.43;1.53;;;5.30;99.90;;;;;;5074001;28;20048;-78
2021/12/18 04:25:36;;;;;;;3.00;2.03;;;5.20;99.90;;;;;;5073528;28;20048;-78
2021/12/18 04:28:03;;;;;;;3.87;1.87;;;5.30;99.90;;;;;;5073822;28;20044;-78
2021/12/18 04:30:29;;;;;;;3.80;2.27;;;5.30;99.90;;;;;;5074293;28;20190;-79
2021/12/18 04:32:56;;;;;;;2.10;1.63;;;5.30;99.90;;;;;;5073847;28;20052;-77
2021/12/18 04:35:23;;;;;;;2.40;1.70;;;5.30;99.90;;;;;;5073130;28;20041;-77
2021/12/18 04:37:53;;;;;;;2.73;1.43;;;5.40;99.90;;;;;;5073634;28;20044;-78
2021/12/18 04:40:24;;;;;;;3.10;1.80;;;5.30;99.90;;;;;;5073831;28;20131;-76
2021/12/18 04:42:51;;;;;;;3.67;2.38;;;5.40;99.90;;;;;;5073348;28;20139;-76
2021/12/18 04:45:18;;;;;;;4.60;2.10;;;5.40;99.90;;;;;;5072657;28;20439;-75
2021/12/18 04:47:44;;;;;;;3.37;2.20;;;5.30;99.90;;;;;;5073316;28;20045;-75
2021/12/18 04:50:11;;;;;;;3.67;2.63;;;5.30;99.90;;;;;;5073066;28;20052;-76
2021/12/18 04:52:38;;;;;;;5.33;2.20;;;5.40;99.90;;;;;;5073120;28;20466;-78
2021/12/18 04:55:07;;;;;;;5.13;2.80;;;5.40;99.90;;;;;;5072794;28;20466;-78
2021/12/18 04:57:34;;;;;;;2.80;1.83;;;5.40;99.90;;;;;;5073996;28;20413;-78
2021/12/18 05:00:01;;;;;;;6.37;3.03;;;5.40;99.90;;;;;;5073017;28;20389;-79
2021/12/18 05:02:35;;;;;;;3.47;2.07;;;5.40;99.90;;;;;;5072815;28;20048;-77
2021/12/18 05:05:03;;;;;;;4.30;2.43;;;5.40;99.90;;;;;;5072203;28;20048;-78
2021/12/18 05:07:30;;;;;;;3.73;2.50;;;5.40;99.90;;;;;;5072968;28;20130;-77
2021/12/18 05:09:57;;;;;;;5.50;2.90;;;5.40;99.90;;;;;;5073465;28;20106;-78
2021/12/18 05:12:25;;;;;;;3.77;2.90;;;5.30;99.90;;;;;;5074935;28;20393;-78
2021/12/18 05:14:52;;;;;;;4.30;2.37;;;5.40;99.90;;;;;;5073932;28;20056;-78
2021/12/18 05:17:19;;;;;;;8.23;3.00;;;5.40;99.90;;;;;;5073759;28;20052;-78
2021/12/18 05:19:46;;;;;;;3.77;1.90;;;5.40;99.90;;;;;;5073165;28;20118;-76
2021/12/18 05:22:12;;;;;;;4.67;3.27;;;5.40;99.90;;;;;;5073442;28;20048;-81
2021/12/18 05:24:39;;;;;;;5.83;2.53;;;5.40;99.90;;;;;;5072447;28;20045;-79
2021/12/18 05:27:06;;;;;;;4.87;3.10;;;5.40;99.90;;;;;;5072949;28;20127;-78
2021/12/18 05:29:34;;;;;;;4.00;2.07;;;5.40;99.90;;;;;;5072921;28;20102;-78
2021/12/18 05:32:01;;;;;;;4.17;2.33;;;5.50;99.90;;;;;;5072559;28;20049;-79
2021/12/18 05:34:33;;;;;;;5.43;2.33;;;5.50;99.90;;;;;;5071820;28;20561;-77
2021/12/18 05:37:17;;;;;;;4.60;2.47;;;5.40;99.90;;;;;;5073060;28;20055;-78
2021/12/18 05:39:44;;;;;;;6.17;2.33;;;5.40;99.90;;;;;;5072875;28;20122;-76
2021/12/18 05:42:11;;;;;;;4.53;2.80;;;5.40;99.90;;;;;;5072355;28;20053;-77
2021/12/18 05:44:39;;;;;;;4.77;2.80;;;5.40;99.90;;;;;;5071853;28;20048;-78
2021/12/18 05:47:06;;;;;;;6.17;3.07;;;5.40;99.90;;;;;;5072196;28;20581;-79
2021/12/18 05:49:33;;;;;;;3.47;1.97;;;5.40;99.90;;;;;;5072478;28;20480;-76
2021/12/18 05:51:59;;;;;;;5.60;2.57;;;5.40;99.90;;;;;;5072732;28;20090;-76
2021/12/18 05:54:26;;;;;;;4.17;2.47;;;5.40;99.90;;;;;;5071897;28;20052;-79
2021/12/18 05:56:52;;;;;;;5.23;2.43;;;5.40;99.90;;;;;;5072723;28;20094;-78
2021/12/18 05:59:19;;;;;;;4.07;1.70;;;5.30;99.90;;;;;;5072374;28;20098;-77
2021/12/18 06:01:47;;;;;;;3.40;1.90;;;5.30;99.90;;;;;;5072162;28;20078;-77
2021/12/18 06:04:14;;;;;;;3.23;2.03;;;5.30;99.90;;;;;;5073079;28;20556;-75
2021/12/18 06:06:41;;;;;;;2.93;1.73;;;5.30;99.90;;;;;;5072848;28;20500;-76
2021/12/18 06:09:09;;;;;;;2.73;1.80;;;5.30;99.90;;;;;;5072150;28;20542;-75
2021/12/18 06:11:38;;;;;;;3.23;1.70;;;5.30;99.90;;;;;;5072080;28;20098;-77
2021/12/18 06:14:05;;;;;;;2.17;1.30;;;5.30;99.90;;;;;;5072044;28;20117;-75
2021/12/18 06:16:31;;;;;;;4.73;1.90;;;5.30;99.90;;;;;;5072095;28;20538;-77
2021/12/18 06:18:59;;;;;;;4.03;1.13;;;5.30;99.90;;;;;;5072186;28;20052;-79
2021/12/18 06:21:26;;;;;;;3.30;1.43;;;5.40;99.90;;;;;;5071757;28;20110;-78
2021/12/18 06:23:54;;;;;;;2.13;1.03;;;5.40;99.90;;;;;;5071535;28;20044;-78
2021/12/18 06:26:22;;;;;;;5.50;2.00;;;5.40;99.90;;;;;;5071166;28;20130;-79
2021/12/18 06:28:50;;;;;;;4.50;2.40;;;5.40;99.90;;;;;;5071818;28;20070;-78
2021/12/18 06:31:16;;;;;;;2.73;1.30;;;5.40;99.90;;;;;;5071798;28;20101;-78
2021/12/18 06:33:43;;;;;;;2.53;1.67;;;5.40;99.90;;;;;;5072846;28;20048;-80
2021/12/18 06:36:11;;;;;;;17.50;7.17;;;5.40;99.90;;;;;;5075730;28;20048;-79
2021/12/18 06:38:38;;;;;;;17.63;8.23;;;5.40;99.90;;;;;;5075879;28;20045;-79
2021/12/18 06:41:05;;;;;;;12.30;6.37;;;5.60;99.90;;;;;;5075948;28;20049;-79
2021/12/18 06:43:32;;;;;;;5.13;2.67;;;5.60;99.90;;;;;;5075940;28;20109;-78
2021/12/18 06:45:58;;;;;;;13.77;6.23;;;5.60;99.90;;;;;;5075413;28;20056;-79
2021/12/18 06:48:25;;;;;;;20.13;10.93;;;5.60;99.90;;;;;;5075671;28;20044;-77
2021/12/18 06:50:51;;;;;;;16.73;9.67;;;5.70;99.90;;;;;;5075434;28;20067;-76
2021/12/18 06:53:19;;;;;;;8.63;5.20;;;5.80;99.90;;;;;;5075439;28;20049;-75
2021/12/18 06:55:46;;;;;;;15.93;8.30;;;5.80;99.90;;;;;;5074826;28;20053;-76
2021/12/18 06:58:13;;;;;;;12.70;7.20;;;5.90;99.90;;;;;;5075527;28;20106;-77
2021/12/18 07:00:40;;;;;;;9.43;5.23;;;6.00;99.90;;;;;;5075508;28;20044;-79
2021/12/18 07:03:07;;;;;;;10.00;5.40;;;6.00;99.90;;;;;;5075365;28;20048;-76
2021/12/18 07:05:33;;;;;;;7.53;4.43;;;6.00;99.90;;;;;;5074772;28;20048;-76
2021/12/18 07:08:00;;;;;;;4.33;2.90;;;6.00;99.90;;;;;;5075339;28;20090;-75
2021/12/18 07:10:30;;;;;;;2.20;1.37;;;6.00;99.90;;;;;;5075314;28;20098;-77
2021/12/18 07:12:56;;;;;;;5.47;3.13;;;5.80;99.90;;;;;;5075431;28;20048;-75
2021/12/18 07:15:23;;;;;;;3.90;2.57;;;5.90;99.90;;;;;;5074928;28;20390;-78
2021/12/18 07:17:50;;;;;;;4.63;3.63;;;5.90;99.90;;;;;;5075151;28;20109;-78
2021/12/18 07:20:17;;;;;;;7.50;3.60;;;6.00;99.90;;;;;;5074893;28;20078;-78
2021/12/18 07:22:43;;;;;;;3.87;2.23;;;6.10;99.90;;;;;;5075985;28;20458;-77
2021/12/18 07:25:11;;;;;;;1.70;1.33;;;6.20;99.90;;;;;;5075244;28;20048;-77
2021/12/18 07:27:39;;;;;;;1.67;1.20;;;6.00;99.90;;;;;;5074910;28;20049;-81
2021/12/18 07:30:08;;;;;;;3.40;1.30;;;6.00;99.90;;;;;;5075523;28;20045;-77
2021/12/18 07:32:34;;;;;;;3.20;1.20;;;5.90;99.90;;;;;;5074792;28;20407;-77
2021/12/18 07:35:01;;;;;;;5.17;1.33;;;5.80;99.90;;;;;;5074321;28;20554;-77
2021/12/18 07:37:27;;;;;;;3.53;1.43;;;5.80;99.90;;;;;;5075062;28;20098;-78
2021/12/18 07:39:54;;;;;;;3.03;1.60;;;5.80;99.90;;;;;;5074951;28;20098;-77
2021/12/18 07:42:22;;;;;;;4.20;1.80;;;5.80;99.90;;;;;;5074728;28;20090;-79
2021/12/18 07:44:50;;;;;;;3.00;1.50;;;5.80;99.90;;;;;;5074478;28;20090;-79
2021/12/18 07:47:17;;;;;;;2.97;2.37;;;5.80;99.90;;;;;;5073805;28;20074;-80
2021/12/18 07:49:44;;;;;;;3.00;1.83;;;5.80;99.90;;;;;;5074290;28;20048;-78
2021/12/18 07:52:12;;;;;;;2.43;1.80;;;5.70;99.90;;;;;;5074514;28;20105;-81
2021/12/18 07:54:39;;;;;;;3.57;1.90;;;5.70;99.90;;;;;;5076103;28;20049;-77
2021/12/18 07:57:05;;;;;;;3.60;2.00;;;5.70;99.90;;;;;;5080583;28;20098;-75
2021/12/18 07:59:32;;;;;;;3.57;2.33;;;5.70;99.90;;;;;;5074744;28;20447;-77
2021/12/18 08:02:01;;;;;;;4.37;2.40;;;5.70;99.90;;;;;;5074856;28;20102;-78
2021/12/18 08:04:27;;;;;;;4.73;2.87;;;5.70;99.90;;;;;;5073845;28;20060;-76
2021/12/18 08:06:54;;;;;;;5.10;3.50;;;5.70;99.90;;;;;;5074612;28;20044;-77
2021/12/18 08:09:21;;;;;;;6.07;3.43;;;5.70;99.90;;;;;;5074280;28;20071;-79
2021/12/18 08:11:47;;;;;;;4.93;3.17;;;5.70;99.90;;;;;;5079474;28;20094;-79
2021/12/18 08:14:14;;;;;;;6.50;4.30;;;5.60;99.90;;;;;;5073777;28;20056;-78
2021/12/18 08:16:41;;;;;;;8.30;4.53;;;5.60;99.90;;;;;;5073989;28;20048;-78
2021/12/18 08:19:08;;;;;;;5.53;3.53;;;5.60;99.90;;;;;;5074316;28;20044;-78
2021/12/18 08:21:35;;;;;;;4.30;3.03;;;5.70;99.90;;;;;;5074032;28;20048;-77
2021/12/18 08:24:02;;;;;;;4.80;3.27;;;5.60;99.90;;;;;;5073336;28;20477;-79
2021/12/18 08:26:29;;;;;;;6.70;3.53;;;5.70;99.90;;;;;;5073869;28;20048;-78
2021/12/18 08:28:55;;;;;;;4.30;2.63;;;5.70;99.90;;;;;;5074159;28;20044;-78
2021/12/18 08:31:22;;;;;;;4.93;2.90;;;5.70;99.90;;;;;;5073503;28;20044;-78
2021/12/18 08:33:49;;;;;;;5.47;2.83;;;5.70;99.90;;;;;;5074019;28;20120;-79
2021/12/18 08:36:17;;;;;;;6.50;2.93;;;5.70;99.90;;;;;;5073733;28;20109;-77
2021/12/18 08:38:44;;;;;;;5.10;2.83;;;5.70;99.90;;;;;;5073872;28;20463;-78
2021/12/18 08:41:11;;;;;;;5.90;2.77;;;5.70;99.90;;;;;;5073405;28;20048;-76
2021/12/18 08:43:38;;;;;;;4.70;3.17;;;5.60;99.90;;;;;;5073154;28;20067;-75
2021/12/18 08:46:04;;;;;;;4.77;2.67;;;5.70;99.90;;;;;;5072480;28;20041;-76
2021/12/18 08:48:31;;;;;;;3.70;3.27;;;5.70;99.90;;;;;;5073274;28;20044;-76
2021/12/18 08:50:58;;;;;;;4.07;2.47;;;5.70;99.90;;;;;;5073396;28;20044;-76
2021/12/18 08:53:26;;;;;;;7.10;3.77;;;5.70;99.90;;;;;;5073177;28;20048;-75
2021/12/18 08:55:52;;;;;;;5.37;3.13;;;5.70;99.90;;;;;;5073416;28;20504;-77
2021/12/18 08:58:19;;;;;;;6.07;3.63;;;5.70;99.90;;;;;;5073413;28;20056;-78
2021/12/18 09:00:46;;;;;;;4.93;3.33;;;5.70;99.90;;;;;;5075738;28;20139;-78
2021/12/18 09:03:13;;;;;;;8.97;5.30;;;5.70;99.90;;;;;;5073088;28;20048;-77
2021/12/18 09:05:39;;;;;;;7.67;4.30;;;5.80;99.90;;;;;;5072877;28;20057;-80
2021/12/18 09:08:06;;;;;;;4.47;2.97;;;5.80;99.90;;;;;;5073580;28;20481;-78
2021/12/18 09:10:35;;;;;;;5.03;3.03;;;5.70;99.90;;;;;;5072992;28;20068;-76
2021/12/18 09:13:01;;;;;;;5.73;2.80;;;5.80;99.90;;;;;;5073339;28;20049;-75
2021/12/18 09:15:28;;;;;;;4.67;3.23;;;5.80;99.90;;;;;;5072895;28;20072;-76
2021/12/18 09:17:55;;;;;;;6.80;3.50;;;5.80;99.90;;;;;;5073420;28;20071;-76
2021/12/18 09:20:21;;;;;;;5.40;2.63;;;5.80;99.90;;;;;;5073042;28;20075;-76
2021/12/18 09:22:48;;;;;;;2.73;1.87;;;5.70;99.90;;;;;;5073230;28;20052;-78
2021/12/18 09:25:15;;;;;;;2.50;2.27;;;5.70;99.90;;;;;;5072364;28;20093;-75
2021/12/18 09:27:44;;;;;;;2.37;2.03;;;5.70;99.90;;;;;;5072863;28;20052;-77
2021/12/18 09:30:14;;;;;;;2.10;1.57;;;5.80;99.90;;;;;;5073012;28;20098;-77
2021/12/18 09:32:41;;;;;;;2.43;1.83;;;5.80;99.90;;;;;;5072504;28;20045;-77
2021/12/18 09:35:10;;;;;;;2.10;1.73;;;5.80;99.90;;;;;;5072062;28;20459;-78
2021/12/18 09:37:37;;;;;;;3.33;1.80;;;5.80;99.90;;;;;;5072579;28;20114;-78
2021/12/18 09:40:04;;;;;;;2.67;2.40;;;5.80;99.90;;;;;;5072381;28;20139;-77
2021/12/18 09:42:32;;;;;;;8.23;5.40;;;5.80;99.90;;;;;;5072577;28;20045;-78
2021/12/18 09:45:00;;;;;;;2.77;2.57;;;5.90;99.90;;;;;;5072206;28;20040;-80
2021/12/18 09:47:26;;;;;;;2.13;1.93;;;5.90;99.90;;;;;;5072166;28;20049;-78
2021/12/18 09:49:55;;;;;;;3.90;2.13;;;5.90;99.90;;;;;;5072385;28;20044;-80
2021/12/18 09:52:22;;;;;;;3.47;2.37;;;5.90;99.90;;;;;;5072129;28;20481;-78
2021/12/18 09:54:49;;;;;;;2.63;1.67;;;5.90;99.90;;;;;;5071698;28;20102;-77
2021/12/18 09:57:15;;;;;;;4.67;2.90;;;5.90;99.90;;;;;;5072400;28;20045;-79
2021/12/18 09:59:42;;;;;;;3.17;2.33;;;5.90;99.90;;;;;;5072964;28;20123;-78
2021/12/18 10:02:10;;;;;;;2.40;2.17;;;5.90;99.90;;;;;;5072363;28;20558;-79
2021/12/18 10:04:38;;;;;;;3.63;2.80;;;5.90;99.90;;;;;;5071924;28;20052;-78
2021/12/18 10:07:17;;;;;;;3.33;2.60;;;6.00;99.90;;;;;;5071992;28;20118;-78
2021/12/18 10:09:44;;;;;;;4.43;2.20;;;6.00;99.90;;;;;;5072093;28;20070;-76
2021/12/18 10:12:17;;;;;;;2.93;2.30;;;6.10;99.90;;;;;;5072304;28;20048;-79
2021/12/18 10:14:45;;;;;;;3.23;2.53;;;6.20;99.90;;;;;;5071304;28;20044;-76
2021/12/18 10:17:26;;;;;;;3.97;1.90;;;6.20;99.90;;;;;;5071826;28;20044;-78
2021/12/18 10:19:54;;;;;;;2.92;1.98;;;6.20;99.90;;;;;;5071661;28;20044;-77
2021/12/18 10:22:21;;;;;;;3.20;2.27;;;6.20;99.90;;;;;;5071762;28;20056;-77
2021/12/18 10:25:04;;;;;;;1.87;1.73;;;6.30;99.90;;;;;;5070881;28;20044;-78
2021/12/18 10:27:30;;;;;;;6.13;2.50;;;6.30;99.90;;;;;;5071935;28;20048;-78
2021/12/18 10:30:12;;;;;;;8.33;4.23;;;6.40;99.90;;;;;;5071762;28;20045;-78
2021/12/18 10:32:40;;;;;;;3.03;2.15;;;6.30;99.90;;;;;;5072271;28;20048;-78
2021/12/18 10:35:07;;;;;;;3.00;1.87;;;6.40;99.90;;;;;;5071206;28;20045;-77
2021/12/18 10:37:35;;;;;;;2.88;2.30;;;6.40;99.90;;;;;;5072079;28;20090;-77
2021/12/18 10:40:07;;;;;;;4.93;2.37;;;6.30;99.90;;;;;;5071887;28;20515;-77
2021/12/18 10:42:39;;;;;;;2.78;2.10;;;6.30;99.90;;;;;;5072067;28;20045;-78
2021/12/18 10:45:16;;;;;;;;;;;6.20;99.90;;;;;;5071727;28;20053;-77
2021/12/18 10:47:55;;;;;;;3.63;2.93;;;6.20;99.90;;;;;;5072322;28;19970;-76
2021/12/18 10:50:28;;;;;;;4.40;3.10;;;6.10;99.90;;;;;;5071508;28;20051;-77
2021/12/18 10:52:58;;;;;;;2.50;1.93;;;6.20;99.90;;;;;;5071746;28;20049;-77
2021/12/18 10:55:34;;;;;;;1.73;1.60;;;6.20;99.90;;;;;;5070850;28;20102;-78
2021/12/18 10:58:03;;;;;;;2.03;1.83;;;6.20;99.90;;;;;;5071628;28;20107;-79
2021/12/18 11:00:40;;;;;;;1.60;1.20;;;6.30;99.90;;;;;;5071382;28;20103;-75
2021/12/18 11:03:17;;;;;;;4.10;2.08;;;6.40;99.90;;;;;;5071838;28;20044;-78
2021/12/18 11:05:43;;;;;;;2.70;1.30;;;6.40;99.90;;;;;;5070716;28;20385;-78
2021/12/18 11:08:12;;;;;;;2.77;2.17;;;6.40;99.90;;;;;;5071382;28;20122;-77
2021/12/18 11:10:53;;;;;;;4.07;1.53;;;6.40;99.90;;;;;;5071534;28;20229;-77
2021/12/18 11:16:05;;;;;;;2.23;1.33;;;6.50;99.90;;;;;;5070623;28;20090;-76
2021/12/18 11:18:34;;;;;;;3.00;2.73;;;6.40;99.90;;;;;;5071463;28;20151;-77
2021/12/18 11:21:01;;;;;;;1.85;1.42;;;6.40;99.90;;;;;;5072332;28;20084;-78
2021/12/18 11:23:37;;;;;;;2.80;1.90;;;6.40;99.90;;;;;;5075099;28;20056;-76
2021/12/18 11:26:04;;;;;;;4.37;3.27;;;6.40;99.90;;;;;;5074435;28;20051;-77
2021/12/18 11:28:32;;;;;;;11.73;6.70;;;6.50;99.90;;;;;;5075036;28;20070;-78
2021/12/18 11:31:02;;;;;;;7.70;4.50;;;6.50;99.90;;;;;;5075081;28;20101;-77
2021/12/18 11:33:28;;;;;;;3.20;2.45;;;6.50;99.90;;;;;;5075526;28;20048;-76
2021/12/18 11:35:57;;;;;;;5.53;2.93;;;6.50;99.90;;;;;;5075402;28;20040;-76
2021/12/18 11:38:24;;;;;;;7.10;3.00;;;6.50;99.90;;;;;;5076332;28;20041;-76
2021/12/18 11:40:51;;;;;;;5.88;3.30;;;6.50;99.90;;;;;;5075947;28;20094;-75
2021/12/18 11:43:32;;;;;;;7.60;4.80;;;6.50;99.90;;;;;;5075724;28;20052;-77
2021/12/18 11:45:59;;;;;;;7.45;5.00;;;6.50;99.90;;;;;;5074721;28;20052;-75
2021/12/18 11:48:26;;;;;;;8.27;4.80;;;6.50;99.90;;;;;;5075104;28;20044;-75
2021/12/18 11:50:53;;;;;;;7.18;3.88;;;6.50;99.90;;;;;;5075001;28;20044;-77
2021/12/18 11:53:32;;;;;;;4.93;3.05;;;6.60;99.90;;;;;;5075184;28;20033;-77
2021/12/18 11:56:01;;;;;;;4.35;3.03;;;6.60;99.90;;;;;;5074599;28;20044;-76
2021/12/18 11:58:29;;;;;;;7.30;3.33;;;6.50;99.90;;;;;;5075204;28;20105;-77
2021/12/18 12:00:59;;;;;;;4.60;2.50;;;6.60;99.90;;;;;;5074775;28;20094;-78
2021/12/18 12:03:35;;;;;;;3.00;2.30;;;6.50;99.90;;;;;;5075278;28;20044;-78
2021/12/18 12:06:04;;;;;;;3.30;2.23;;;6.50;99.90;;;;;;5074577;28;20047;-76
2021/12/18 12:08:37;;;;;;;5.32;2.25;;;6.50;99.90;;;;;;5075310;28;20053;-76
2021/12/18 12:11:17;;;;;;;4.30;2.78;;;6.60;99.90;;;;;;5074865;28;20087;-77
2021/12/18 12:14:01;;;;;;;5.80;2.90;;;6.60;99.90;;;;;;5074863;28;20056;-77
2021/12/18 12:17:05;;;;;;;3.78;2.55;;;6.60;99.90;;;;;;5075387;28;20496;-76
2021/12/18 12:19:47;;;;;;;4.70;2.73;;;6.60;99.90;;;;;;5076582;28;20049;-76
2021/12/18 12:22:32;;;;;;;;;;;6.50;99.90;;;;;;5077629;28;20044;-76
2021/12/18 12:25:02;;;;;;;6.00;3.83;;;6.40;99.90;;;;;;5076120;28;19920;-78
2021/12/18 12:27:31;;;;;;;3.75;2.38;;;6.40;99.90;;;;;;5074367;28;20041;-77
2021/12/18 12:30:00;;;;;;;3.45;1.80;;;6.40;99.90;;;;;;5073793;28;20121;-75
2021/12/18 12:32:29;;;;;;;2.28;2.03;;;6.40;99.90;;;;;;5073163;28;20041;-75
2021/12/18 12:35:01;;;;;;;2.97;1.65;;;6.50;99.90;;;;;;5073516;28;20055;-75
2021/12/18 12:37:36;;;;;;;6.43;3.70;;;6.40;99.90;;;;;;5074083;28;20110;-76
2021/12/18 12:40:09;;;;;;;2.00;1.53;;;6.50;99.90;;;;;;5073944;28;20044;-75
2021/12/18 12:42:37;;;;;;;1.43;1.33;;;6.50;99.90;;;;;;5074494;28;20044;-76
2021/12/18 12:45:09;;;;;;;2.17;1.48;;;6.60;99.90;;;;;;5073605;28;20072;-76
2021/12/18 12:47:36;;;;;;;1.83;1.50;;;6.50;99.90;;;;;;5074160;28;20084;-75
2021/12/18 12:50:29;;;;;;;2.53;1.57;;;6.50;99.90;;;;;;5074237;28;20044;-77
2021/12/18 12:53:00;;;;;;;2.83;1.50;;;6.60;99.90;;;;;;5073821;28;20045;-75
2021/12/18 12:55:30;;;;;;;1.88;1.70;;;6.60;99.90;;;;;;5073026;28;20051;-76
2021/12/18 12:57:58;;;;;;;1.75;1.50;;;6.60;99.90;;;;;;5073081;28;20481;-78
2021/12/18 13:00:37;;;;;;;1.85;1.25;;;6.60;99.90;;;;;;5073171;28;20044;-78
2021/12/18 13:03:19;;;;;;;2.03;1.60;;;6.60;99.90;;;;;;5073014;28;20500;-76
2021/12/18 13:06:08;;;;;;;1.70;1.60;;;6.60;99.90;;;;;;5072552;28;20101;-77
2021/12/18 13:08:38;;;;;;;1.97;1.83;;;6.70;99.90;;;;;;5064764;28;20106;-77
2021/12/18 13:11:15;;;;;;;3.07;1.97;;;6.70;99.90;;;;;;5073320;28;20554;-74
2021/12/18 13:13:42;;;;;;;3.33;2.22;;;6.60;99.90;;;;;;5073293;28;20048;-76
2021/12/18 13:16:11;;;;;;;5.18;2.33;;;6.60;99.90;;;;;;5072423;28;20106;-75
2021/12/18 13:18:40;;;;;;;4.43;2.50;;;6.60;99.90;;;;;;5072838;28;20131;-75
2021/12/18 13:21:09;;;;;;;2.53;1.98;;;6.60;99.90;;;;;;5072735;28;20049;-75
2021/12/18 13:23:48;;;;;;;8.30;3.10;;;6.70;99.90;;;;;;5073090;28;20393;-77
2021/12/18 13:26:19;;;;;;;3.78;2.30;;;6.70;99.90;;;;;;5072012;28;20050;-76
2021/12/18 13:28:48;;;;;;;2.38;1.95;;;6.70;99.90;;;;;;5072838;28;20417;-76
2021/12/18 13:31:15;;;;;;;2.08;1.83;;;6.70;99.90;;;;;;5072865;28;20045;-75
2021/12/18 13:33:42;;;;;;;2.67;2.03;;;6.70;99.90;;;;;;5076409;28;20071;-76
2021/12/18 13:36:09;;;;;;;2.25;1.90;;;6.70;99.90;;;;;;5072277;28;20114;-76
2021/12/18 13:38:37;;;;;;;3.50;2.17;;;6.80;99.90;;;;;;5072812;28;20057;-79